Time;durP1;ratioP1;P1;durP2;ratioP2;P2;SDS_P1;SDS_P2;PMS_P1;PMS_P2;Temp;Humidity;BMP_temperature;BMP_pressure;BME280_temperature;BME280_humidity;BME280_pressure;Samples;Min_cycle;Max_cycle;Signal;HPM_P1;HPM_P2
2022/09/04 00:06:09;;;;;;;7.40;5.20;;;;;;;12.25;81.39;98935.54;110023;1274;1017292;-74
2022/09/04 00:19:21;;;;;;;5.80;4.00;;;;;;;12.24;81.97;98927.38;110129;1272;1017025;-74
2022/09/04 00:25:42;;;;;;;6.90;4.20;;;;;;;12.33;82.15;98921.42;110166;1272;1016474;-74
2022/09/04 00:32:45;;;;;;;5.40;4.10;;;;;;;12.42;82.24;98910.61;109773;1276;1017873;-75
2022/09/04 00:38:57;;;;;;;;;;;;;;;;;;;;;
2022/09/04 00:45:31;;;;;;;;;;;;;;;;;;;;;
2022/09/04 00:52:33;;;;;;;7.00;4.40;;;;;;;12.57;82.01;98956.42;109763;1274;1017094;-74
2022/09/04 01:06:16;;;;;;;4.20;3.60;;;;;;;12.63;81.99;98950.49;110056;1273;1019544;-75
2022/09/04 01:12:16;;;;;;;5.20;4.10;;;;;;;12.65;81.94;98948.10;109965;1273;1016522;-74
2022/09/04 01:18:52;;;;;;;5.20;3.90;;;;;;;12.65;81.94;98950.57;110018;1274;1018914;-74
2022/09/04 01:25:16;;;;;;;5.60;3.90;;;;;;;12.62;81.94;98953.33;109910;1274;1016521;-73
2022/09/04 01:32:08;;;;;;;4.60;3.80;;;;;;;12.61;81.97;98952.42;110103;1274;1016839;-74
2022/09/04 01:39:17;;;;;;;;;;;;;;;;;;;;;
2022/09/04 01:46:38;;;;;;;;;;;;;;;;;;;;;
2022/09/04 02:13:03;;;;;;;;;;;;;;;;;;;;;
2022/09/04 02:19:57;;;;;;;;;;;;;;;;;;;;;
2022/09/04 02:26:54;;;;;;;5.90;4.50;;;;;;;12.64;82.68;98938.86;110088;1274;1016694;-74
2022/09/04 02:32:55;;;;;;;7.20;5.10;;;;;;;12.67;82.59;98940.95;110098;1273;1017230;-74
2022/09/04 02:39:02;;;;;;;8.60;5.10;;;;;;;12.67;82.62;98926.94;110102;1273;1016634;-74
2022/09/04 02:45:24;;;;;;;6.80;5.30;;;;;;;12.65;82.67;98923.69;110129;1274;1017788;-74
2022/09/04 02:59:35;;;;;;;5.20;4.60;;;;;;;12.70;82.81;98928.17;109910;1273;1017918;-74
2022/09/04 03:06:26;;;;;;;;;;;;;;;;;;;;;
2022/09/04 03:13:35;;;;;;;6.10;4.50;;;;;;;12.75;82.81;98931.55;109974;1272;1017486;-73
2022/09/04 03:19:37;;;;;;;6.20;4.50;;;;;;;12.72;82.78;98930.11;109515;1281;1016612;-73
2022/09/04 03:25:50;;;;;;;5.70;4.80;;;;;;;12.73;82.93;98929.36;177255;1273;1016306;-74
2022/09/04 03:32:16;;;;;;;;;;;;;;;;;;;;;
2022/09/04 03:44:57;;;;;;;6.50;4.80;;;;;;;12.75;82.97;98925.11;110208;1273;1017491;-73
2022/09/04 03:50:46;;;;;;;5.30;4.30;;;;;;;12.76;83.02;98921.81;110183;1273;1018951;-74
2022/09/04 03:57:12;;;;;;;6.60;5.00;;;;;;;12.73;82.94;98929.77;110199;1273;1017405;-74
2022/09/04 04:03:40;;;;;;;5.80;5.20;;;;;;;12.69;82.89;98943.02;218801;1273;1016449;-74
2022/09/04 04:10:19;;;;;;;;;;;;;;;;;;;;;
2022/09/04 04:16:43;;;;;;;6.10;5.00;;;;;;;12.55;83.06;98958.38;220543;1273;22531;-74
2022/09/04 04:23:28;;;;;;;5.30;4.70;;;;;;;12.50;83.20;98954.65;220623;1273;22539;-74
2022/09/04 04:29:46;;;;;;;5.40;4.50;;;;;;;12.45;83.28;98953.19;220609;1273;25398;-74
2022/09/04 04:36:59;;;;;;;6.50;4.90;;;;;;;12.47;83.59;98958.34;219805;1276;25687;-74
2022/09/04 04:43:34;;;;;;;7.50;4.90;;;;;;;12.54;83.69;98968.77;219784;1276;25434;-75
2022/09/04 04:57:11;;;;;;;7.20;5.60;;;;;;;12.87;83.76;98988.12;220217;1274;24355;-75
2022/09/04 05:03:30;;;;;;;;;;;;;;;;;;;;;
2022/09/04 05:10:10;;;;;;;6.10;5.40;;;;;;;13.13;83.60;98992.39;220872;1274;22874;-76
2022/09/04 05:17:19;;;;;;;;;;;;;;;;;;;;;
2022/09/04 05:23:54;;;;;;;6.10;5.00;;;;;;;13.40;83.15;99003.13;219030;1281;25441;-74
2022/09/04 05:30:41;;;;;;;6.80;4.90;;;;;;;13.47;82.85;99011.14;220003;1273;24026;-74
2022/09/04 05:36:47;;;;;;;;;;;;;;;;;;;;;
2022/09/04 05:50:53;;;;;;;4.80;4.20;;;;;;;13.71;82.42;99023.69;220788;1274;23831;-73
2022/09/04 05:57:39;;;;;;;7.20;5.40;;;;;;;13.82;82.27;99029.23;219057;1281;22594;-74
2022/09/04 06:04:06;;;;;;;5.80;4.80;;;;;;;13.96;81.99;99045.80;219288;1281;22565;-74
2022/09/04 06:10:32;;;;;;;5.10;4.60;;;;;;;14.08;81.86;99052.27;166123;1281;1018412;-75
2022/09/04 06:16:48;;;;;;;7.10;5.20;;;;;;;14.27;81.72;99059.00;110046;1273;1016627;-74
2022/09/04 06:23:40;;;;;;;6.00;4.90;;;;;;;14.51;81.36;99074.70;110316;1274;1016609;-74
2022/09/04 06:29:36;;;;;;;5.90;4.60;;;;;;;14.77;81.06;99069.45;109959;1273;1016708;-74
2022/09/04 06:35:30;;;;;;;8.40;5.00;;;;;;;15.06;80.55;99075.62;109900;1274;1016352;-74
2022/09/04 06:41:53;;;;;;;5.20;4.50;;;;;;;15.36;79.96;99081.60;109927;1273;1016729;-74
2022/09/04 06:47:25;;;;;;;5.90;4.20;;;;;;;15.61;79.41;99084.74;109936;1272;1019056;-74
2022/09/04 06:53:14;;;;;;;5.90;4.50;;;;;;;15.78;78.60;99088.85;109783;1276;1016264;-74
2022/09/04 06:59:13;;;;;;;4.80;4.30;;;;;;;15.87;78.03;99086.13;109700;1277;1016784;-74
2022/09/04 07:05:03;;;;;;;5.00;3.90;;;;;;;15.98;77.45;99090.23;109666;1274;1018937;-73
2022/09/04 07:10:39;;;;;;;7.20;4.70;;;;;;;16.08;77.23;99101.42;109890;1273;1018218;-74
2022/09/04 07:16:35;;;;;;;5.20;4.20;;;;;;;16.28;77.16;99118.73;109783;1274;1018468;-74
2022/09/04 07:22:38;;;;;;;4.00;3.60;;;;;;;16.40;76.45;99123.52;109919;1273;1016770;-75
2022/09/04 07:28:34;;;;;;;4.60;3.50;;;;;;;16.48;75.93;99127.52;109855;1273;1016721;-74
2022/09/04 07:34:46;;;;;;;5.20;4.30;;;;;;;16.47;75.59;99134.48;110049;1271;1018387;-75
2022/09/04 07:41:06;;;;;;;5.40;4.10;;;;;;;16.48;75.54;99147.91;109750;1273;1016954;-74
2022/09/04 07:47:29;;;;;;;6.50;3.80;;;;;;;16.38;75.10;99151.82;110123;1273;1016893;-74
2022/09/04 07:54:02;;;;;;;;;;;;;;;;;;;;;
2022/09/04 08:00:41;;;;;;;6.40;4.60;;;;;;;16.18;75.61;99165.66;220508;1273;22724;-74
2022/09/04 08:07:09;;;;;;;;;;;;;;;;;;;;;
2022/09/04 08:13:38;;;;;;;4.50;4.00;;;;;;;16.23;75.71;99179.09;220488;1274;22552;-74
2022/09/04 08:19:49;;;;;;;;;;;;;;;;;;;;;
2022/09/04 08:32:31;;;;;;;8.90;5.00;;;;;;;16.89;74.95;99212.95;219177;1279;22615;-74
2022/09/04 08:39:01;;;;;;;6.20;5.50;;;;;;;16.93;74.39;99215.29;219489;1279;25195;-73
2022/09/04 08:44:52;;;;;;;7.00;5.40;;;;;;;17.14;74.57;99222.90;219256;1279;24322;-74
2022/09/04 08:50:50;;;;;;;6.70;6.00;;;;;;;17.49;74.21;99227.08;171000;1273;1016471;-73
2022/09/04 08:57:31;;;;;;;9.90;6.40;;;;;;;17.66;73.53;99231.18;110078;1273;1016474;-74
2022/09/04 09:03:04;;;;;;;7.50;6.10;;;;;;;17.56;72.48;99237.11;109204;1281;1016656;-75
2022/09/04 09:09:31;;;;;;;8.70;5.40;;;;;;;17.36;73.06;99242.26;110088;1273;1016742;-74
2022/09/04 09:15:44;;;;;;;7.60;5.40;;;;;;;17.25;73.15;99240.88;110004;1273;1016618;-74
2022/09/04 09:21:53;;;;;;;7.50;6.40;;;;;;;17.12;73.39;99246.63;136360;1273;1020113;-73
2022/09/04 09:28:03;;;;;;;7.00;5.40;;;;;;;16.99;73.68;99242.21;220067;1273;1016317;-73
2022/09/04 09:34:37;;;;;;;7.30;6.20;;;;;;;16.77;73.87;99240.05;220759;1273;22554;-75
2022/09/04 09:40:39;;;;;;;10.70;7.50;;;;;;;16.60;74.78;99246.57;187002;1271;2002284;-74
2022/09/04 09:53:08;;;;;;;12.30;8.70;;;;;;;16.23;76.78;99244.66;220083;1276;22546;-74
2022/09/04 09:58:57;;;;;;;18.90;14.90;;;;;;;16.00;77.33;99247.98;219843;1276;22575;-72
2022/09/04 10:05:18;;;;;;;15.30;10.10;;;;;;;15.76;78.53;99241.56;219466;1279;24541;-73
2022/09/04 10:11:22;;;;;;;11.40;8.90;;;;;;;15.56;79.13;99245.00;219937;1276;22984;-76
2022/09/04 10:17:57;;;;;;;11.50;9.00;;;;;;;15.29;79.79;99245.45;219582;1279;22715;-74
2022/09/04 10:23:54;;;;;;;;;;;;;;;;;;;;;
2022/09/04 10:29:36;;;;;;;12.00;8.10;;;;;;;15.06;81.86;99248.77;175880;1279;1014817;-75
2022/09/04 10:35:41;;;;;;;9.50;7.20;;;;;;;15.18;82.70;99252.45;219781;1276;22912;-74
2022/09/04 10:41:46;;;;;;;11.20;8.30;;;;;;;15.42;82.97;99251.57;219915;1276;24478;-73
2022/09/04 10:47:57;;;;;;;9.70;7.20;;;;;;;15.64;82.96;99257.91;220084;1277;24398;-75
2022/09/04 10:54:30;;;;;;;9.10;7.00;;;;;;;15.90;82.95;99263.64;220110;1277;22594;-73
2022/09/04 11:00:49;;;;;;;8.30;6.30;;;;;;;16.17;83.19;99270.90;220050;1277;23801;-74
2022/09/04 11:06:54;;;;;;;9.70;6.80;;;;;;;16.46;83.07;99270.88;220037;1273;22687;-74
2022/09/04 11:12:31;;;;;;;9.90;6.50;;;;;;;16.85;82.90;99264.92;220582;1274;24430;-75
2022/09/04 11:18:22;;;;;;;8.40;6.70;;;;;;;17.40;82.84;99273.31;215684;1273;1004967;-74
2022/09/04 11:24:04;;;;;;;9.60;7.50;;;;;;;17.86;81.71;99276.01;220612;1272;22557;-76
2022/09/04 11:30:04;;;;;;;7.20;6.10;;;;;;;18.30;81.40;99279.30;220409;1273;25409;-74
2022/09/04 11:36:19;;;;;;;7.90;6.60;;;;;;;18.45;79.90;99284.86;217420;1273;1003909;-76
2022/09/04 11:42:00;;;;;;;9.80;7.00;;;;;;;18.33;79.33;99285.60;220367;1273;25270;-74
2022/09/04 11:47:53;;;;;;;7.70;6.40;;;;;;;18.25;79.45;99289.19;219144;1273;1003698;-76
2022/09/04 11:54:18;;;;;;;10.00;8.70;;;;;;;18.25;79.43;99281.52;220940;1273;24393;-75
2022/09/04 12:00:30;;;;;;;9.30;7.10;;;;;;;18.48;79.36;99268.75;220437;1273;25352;-75
2022/09/04 12:06:43;;;;;;;8.60;6.90;;;;;;;18.69;79.00;99267.85;220784;1274;24400;-74
2022/09/04 12:12:57;;;;;;;7.30;6.40;;;;;;;18.91;78.46;99271.09;220299;1274;22601;-74
2022/09/04 12:18:50;;;;;;;6.50;5.30;;;;;;;19.02;77.91;99268.45;220882;1274;22536;-75
2022/09/04 12:24:36;;;;;;;6.90;6.10;;;;;;;19.13;77.68;99270.24;219955;1273;1003876;-75
2022/09/04 12:30:24;;;;;;;6.30;5.00;;;;;;;19.16;77.58;99271.52;220861;1274;22772;-75
2022/09/04 12:35:55;;;;;;;5.90;5.10;;;;;;;19.09;77.34;99268.10;220782;1274;26361;-75
2022/09/04 12:41:31;;;;;;;5.40;4.90;;;;;;;18.91;77.05;99265.80;203201;1273;1016091;-77
2022/09/04 12:47:58;;;;;;;5.80;4.50;;;;;;;18.70;77.35;99261.13;220766;1274;24226;-74
2022/09/04 12:53:39;;;;;;;5.00;4.50;;;;;;;18.65;77.69;99260.89;220000;1274;25353;-75
2022/09/04 12:59:38;;;;;;;7.90;6.20;;;;;;;18.88;78.13;99263.54;220822;1274;24303;-74
2022/09/04 13:05:35;;;;;;;5.80;5.20;;;;;;;19.03;77.30;99261.84;176220;1274;1016132;-75
2022/09/04 13:11:45;;;;;;;6.00;5.20;;;;;;;18.98;77.16;99259.32;199517;1274;1005871;-75
2022/09/04 13:17:51;;;;;;;6.60;5.30;;;;;;;19.00;77.27;99262.23;217819;1274;1015912;-77
2022/09/04 13:23:37;;;;;;;5.90;5.30;;;;;;;19.14;77.27;99262.12;220625;1274;23479;-74
2022/09/04 13:29:36;;;;;;;5.50;4.70;;;;;;;19.32;77.48;99270.60;220812;1274;22709;-75
2022/09/04 13:36:07;;;;;;;;;;;;;;;;;;;;;
2022/09/04 13:42:20;;;;;;;6.10;5.30;;;;;;;19.65;75.78;99269.45;216682;1274;5341056;-74
2022/09/04 13:47:59;;;;;;;5.60;4.60;;;;;;;19.60;74.73;99273.80;220840;1274;24290;-74
2022/09/04 13:54:11;;;;;;;8.00;7.00;;;;;;;19.86;75.36;99280.61;203012;1274;1016151;-74
2022/09/04 13:59:48;;;;;;;5.70;5.10;;;;;;;20.17;74.94;99285.55;219215;1272;1017133;-74
2022/09/04 14:05:22;;;;;;;5.90;4.80;;;;;;;20.40;74.59;99283.23;220676;1274;22723;-76
2022/09/04 14:11:31;;;;;;;5.40;4.80;;;;;;;20.62;73.62;99281.09;220596;1274;25342;-75
2022/09/04 14:17:40;;;;;;;5.90;4.60;;;;;;;20.63;72.90;99282.68;219805;1277;22556;-77
2022/09/04 14:23:40;;;;;;;6.30;4.80;;;;;;;20.93;73.22;99277.73;220795;1274;22597;-75
2022/09/04 14:29:21;;;;;;;4.80;4.00;;;;;;;20.85;71.07;99277.42;220743;1271;25336;-74
2022/09/04 14:35:39;;;;;;;5.50;4.70;;;;;;;20.64;70.90;99287.17;220130;1272;1002787;-74
2022/09/04 14:41:30;;;;;;;5.20;4.60;;;;;;;20.54;71.41;99290.56;216119;1277;1005421;-75
2022/09/04 14:48:05;;;;;;;5.50;4.80;;;;;;;20.68;71.97;99285.27;219142;1277;1002513;-76
2022/09/04 14:53:45;;;;;;;5.80;5.10;;;;;;;20.69;71.63;99291.34;219644;1277;22714;-74
2022/09/04 14:59:17;;;;;;;8.20;4.50;;;;;;;20.63;71.50;99296.52;218595;1274;1003160;-75
2022/09/04 15:04:34;;;;;;;;;;;;;;;20.58;71.79;99300.58;220591;1273;23391;-74
2022/09/04 15:09:55;;;;;;;5.70;4.90;;;;;;;20.59;71.96;99309.00;220620;1273;24416;-74
2022/09/04 15:15:39;;;;;;;6.20;5.40;;;;;;;20.57;72.06;99308.15;218724;1273;1003150;-75
2022/09/04 15:21:11;;;;;;;6.60;5.10;;;;;;;20.46;72.00;99307.53;218550;1273;1003159;-75
2022/09/04 15:26:34;;;;;;;6.60;4.60;;;;;;;20.35;71.90;99306.46;220207;1273;1002301;-74
2022/09/04 15:32:02;;;;;;;4.90;4.40;;;;;;;20.24;71.94;99299.66;220412;1273;22679;-76
2022/09/04 15:37:30;;;;;;;6.30;5.70;;;;;;;20.12;71.85;99303.11;220073;1273;22711;-76
2022/09/04 15:43:03;;;;;;;8.40;4.80;;;;;;;19.98;72.09;99306.56;220771;1273;22540;-74
2022/09/04 15:48:38;;;;;;;5.40;4.60;;;;;;;19.91;72.34;99301.41;219857;1274;1002700;-74
2022/09/04 15:54:33;;;;;;;6.60;5.20;;;;;;;19.79;72.59;99305.80;219981;1273;1003098;-75
2022/09/04 16:06:14;;;;;;;5.80;5.20;;;;;;;19.65;73.14;99305.55;220767;1273;22584;-76
2022/09/04 16:11:47;;;;;;;5.80;4.10;;;;;;;19.55;73.38;99302.77;219745;1273;1002295;-74
2022/09/04 16:17:01;;;;;;;5.50;4.80;;;;;;;19.44;73.31;99303.38;220286;1273;25373;-75
2022/09/04 16:22:48;;;;;;;;;;;;;;;;;;;;;
2022/09/04 16:28:54;;;;;;;5.30;4.80;;;;;;;19.26;74.09;99306.85;220076;1274;1018416;-77
2022/09/04 16:34:26;;;;;;;4.70;4.00;;;;;;;19.18;74.23;99310.77;220424;1273;25376;-74
2022/09/04 16:40:29;;;;;;;5.00;4.30;;;;;;;19.05;74.19;99314.33;220359;1273;22554;-74
2022/09/04 16:46:48;;;;;;;;;;;;;;;;;;;;;
2022/09/04 16:52:52;;;;;;;8.10;5.60;;;;;;;18.90;75.22;99314.79;220569;1274;22681;-75
2022/09/04 16:58:30;;;;;;;7.00;6.00;;;;;;;18.82;75.28;99309.90;220472;1273;23144;-74
2022/09/04 17:09:57;;;;;;;10.80;6.80;;;;;;;18.56;75.64;99312.71;220576;1273;22707;-75
2022/09/04 17:16:09;;;;;;;;;;;;;;;;;;;;;
2022/09/04 17:28:16;;;;;;;11.70;9.10;;;;;;;18.03;76.37;99322.23;219683;1273;1002999;-75
2022/09/04 17:33:50;;;;;;;8.50;7.00;;;;;;;17.84;76.68;99330.48;219761;1273;1015358;-75
2022/09/04 17:40:08;;;;;;;9.00;6.90;;;;;;;17.65;77.07;99336.05;216583;1273;1002682;-75
2022/09/04 17:46:26;;;;;;;8.40;7.20;;;;;;;17.44;77.54;99335.65;216045;1276;1003345;-77
2022/09/04 17:51:33;;;;;;;9.20;7.50;;;;;;;17.24;77.98;99344.26;220122;1273;22709;-77
2022/09/04 17:56:47;;;;;;;12.30;7.70;;;;;;;17.09;78.36;99349.58;220043;1274;23295;-77
2022/09/04 18:02:21;;;;;;;9.30;7.80;;;;;;;16.92;78.75;99359.33;220221;1273;22772;-75
2022/09/04 18:08:10;;;;;;;10.00;7.80;;;;;;;16.74;79.22;99369.30;220372;1273;24324;-75
2022/09/04 18:13:18;;;;;;;9.70;8.20;;;;;;;16.60;79.65;99377.52;216545;1273;1003886;-74
2022/09/04 18:18:45;;;;;;;10.50;8.40;;;;;;;16.49;80.23;99382.43;220387;1273;22680;-75
2022/09/04 18:24:32;;;;;;;12.30;8.30;;;;;;;16.42;80.56;99395.39;220043;1274;24251;-74
2022/09/04 18:30:09;;;;;;;9.80;7.10;;;;;;;16.37;81.00;99400.42;220055;1274;24802;-74
2022/09/04 18:36:10;;;;;;;12.30;8.20;;;;;;;16.30;81.46;99408.17;220022;1274;22582;-74
2022/09/04 18:42:01;;;;;;;10.60;9.00;;;;;;;16.24;81.68;99415.15;219862;1274;25367;-74
2022/09/04 18:47:41;;;;;;;10.10;8.90;;;;;;;16.14;81.87;99419.10;219878;1274;23011;-74
2022/09/04 18:53:20;;;;;;;12.60;9.00;;;;;;;16.02;82.16;99429.27;220297;1273;23204;-74
2022/09/04 18:58:43;;;;;;;11.70;8.00;;;;;;;15.92;82.39;99433.61;220482;1273;22585;-75
2022/09/04 19:04:14;;;;;;;10.20;7.90;;;;;;;15.79;82.76;99436.73;220426;1273;25343;-75
2022/09/04 19:09:35;;;;;;;16.70;9.90;;;;;;;15.65;83.04;99437.91;220643;1273;23084;-75
2022/09/04 19:14:53;;;;;;;12.80;9.70;;;;;;;15.52;83.23;99438.91;220451;1273;24329;-74
2022/09/04 19:20:17;;;;;;;14.40;10.30;;;;;;;15.38;83.62;99442.13;220288;1273;22620;-74
2022/09/04 19:25:37;;;;;;;18.10;13.90;;;;;;;15.28;83.83;99439.88;220637;1274;25313;-73
2022/09/04 19:31:23;;;;;;;13.30;10.70;;;;;;;15.16;84.21;99438.44;220183;1274;22686;-74
2022/09/04 19:36:48;;;;;;;15.70;10.60;;;;;;;15.07;84.46;99445.60;219668;1274;1002503;-75
2022/09/04 19:42:14;;;;;;;16.30;12.20;;;;;;;14.97;84.80;99445.63;219892;1274;1002821;-74
2022/09/04 19:48:17;;;;;;;17.10;11.60;;;;;;;14.86;85.09;99445.73;219414;1273;1003472;-74
2022/09/04 19:53:41;;;;;;;16.50;12.80;;;;;;;14.76;85.57;99444.55;220564;1274;24272;-74
2022/09/04 19:58:59;;;;;;;21.80;14.30;;;;;;;14.67;85.92;99446.88;217641;1273;1005030;-74
2022/09/04 20:04:41;;;;;;;18.80;12.80;;;;;;;14.60;86.36;99443.30;218218;1273;1003313;-75
2022/09/04 20:09:55;;;;;;;16.10;12.70;;;;;;;14.58;86.88;99441.50;220493;1272;22579;-74
2022/09/04 20:15:13;;;;;;;18.70;12.90;;;;;;;14.61;87.21;99445.36;220521;1273;25415;-74
2022/09/04 20:20:43;;;;;;;16.80;12.30;;;;;;;14.67;87.75;99451.36;220720;1273;24222;-75
2022/09/04 20:26:23;;;;;;;15.30;11.60;;;;;;;14.75;88.01;99452.96;220579;1273;22535;-75
2022/09/04 20:32:23;;;;;;;14.00;11.40;;;;;;;14.84;88.11;99451.30;220578;1273;24682;-75
2022/09/04 20:37:37;;;;;;;18.20;11.50;;;;;;;14.91;88.37;99448.39;220233;1273;22538;-74
2022/09/04 20:42:50;;;;;;;15.40;11.20;;;;;;;14.95;88.40;99455.06;220436;1273;22548;-74
2022/09/04 20:48:03;;;;;;;15.00;12.30;;;;;;;14.97;88.51;99455.29;220479;1273;24231;-74
2022/09/04 20:53:48;;;;;;;17.60;12.60;;;;;;;14.95;88.42;99457.82;220720;1273;25348;-75
2022/09/04 20:59:29;;;;;;;17.50;12.70;;;;;;;14.93;88.59;99458.66;220670;1273;25427;-74
2022/09/04 21:05:49;;;;;;;16.90;12.00;;;;;;;14.92;88.70;99458.90;220682;1273;24368;-75
2022/09/04 21:12:05;;;;;;;16.10;12.00;;;;;;;14.92;88.86;99457.57;220904;1273;22807;-74
2022/09/04 21:17:47;;;;;;;19.10;12.50;;;;;;;14.95;88.97;99467.52;220400;1273;22568;-75
2022/09/04 21:24:37;;;;;;;;;;;;;;;;;;;;;
2022/09/04 21:31:33;;;;;;;14.40;10.70;;;;;;;15.01;89.07;99466.59;218482;1274;1002526;-75
2022/09/04 21:38:08;;;;;;;17.30;12.50;;;;;;;15.02;89.06;99471.97;220055;1274;22557;-76
2022/09/04 21:44:57;;;;;;;19.80;12.90;;;;;;;15.04;89.13;99485.27;219773;1275;23251;-75
2022/09/04 21:58:19;;;;;;;11.50;9.30;;;;;;;15.13;89.38;99493.39;220764;1273;25525;-74
2022/09/04 22:18:09;;;;;;;;;;;;;;;;;;;;;
2022/09/04 22:24:55;;;;;;;16.80;11.10;;;;;;;15.26;89.68;99496.28;220679;1272;25536;-75
2022/09/04 22:38:09;;;;;;;13.60;10.00;;;;;;;15.25;89.94;99484.91;219134;1276;25263;-75
2022/09/04 22:44:53;;;;;;;14.90;10.80;;;;;;;15.22;89.88;99483.71;219881;1274;26626;-74
2022/09/04 22:51:11;;;;;;;14.80;10.70;;;;;;;15.20;89.90;99491.52;220019;1274;22562;-74
2022/09/04 22:57:52;;;;;;;14.00;11.00;;;;;;;15.17;90.11;99492.61;219666;1277;24749;-75
2022/09/04 23:03:51;;;;;;;14.80;11.60;;;;;;;15.11;90.34;99500.06;219619;1278;23331;-74
2022/09/04 23:10:24;;;;;;;16.50;12.90;;;;;;;15.03;90.40;99502.54;220750;1271;22598;-75
2022/09/04 23:17:06;;;;;;;16.60;11.60;;;;;;;14.97;90.61;99502.66;220419;1273;25356;-74
2022/09/04 23:23:35;;;;;;;13.10;9.40;;;;;;;14.90;90.74;99497.95;220515;1273;24471;-75
2022/09/04 23:37:42;;;;;;;15.00;11.30;;;;;;;14.75;91.31;99498.11;220659;1273;25381;-78
2022/09/04 23:44:07;;;;;;;;;;;;;;;;;;;;;
2022/09/04 23:50:46;;;;;;;17.00;10.50;;;;;;;14.67;91.78;99492.82;220549;1273;22578;-75
2022/09/04 23:57:28;;;;;;;19.10;12.50;;;;;;;14.62;91.99;99491.44;220509;1273;22557;-73
